sensor_id;sensor_type;location;lat;lon;timestamp;temperature;humidity
9437;DHT22;4757;59.334;18.034;2023-03-01T00:01:36;3.60;99.90
9437;DHT22;4757;59.334;18.034;2023-03-01T00:04:03;3.60;99.90
9437;DHT22;4757;59.334;18.034;2023-03-01T00:06:30;3.70;99.90
9437;DHT22;4757;59.334;18.034;2023-03-01T00:08:58;3.60;99.90
9437;DHT22;4757;59.334;18.034;2023-03-01T00:11:28;3.50;99.90
9437;DHT22;4757;59.334;18.034;2023-03-01T00:13:57;3.50;99.90
9437;DHT22;4757;59.334;18.034;2023-03-01T00:16:28;3.40;99.90
9437;DHT22;4757;59.334;18.034;2023-03-01T00:18:56;3.40;99.90
9437;DHT22;4757;59.334;18.034;2023-03-01T00:21:25;3.40;99.90
9437;DHT22;4757;59.334;18.034;2023-03-01T00:23:53;3.40;99.90
9437;DHT22;4757;59.334;18.034;2023-03-01T00:26:22;3.30;99.90
9437;DHT22;4757;59.334;18.034;2023-03-01T00:28:49;3.30;99.90
9437;DHT22;4757;59.334;18.034;2023-03-01T00:31:19;3.30;99.90
9437;DHT22;4757;59.334;18.034;2023-03-01T00:33:47;3.20;99.90
9437;DHT22;4757;59.334;18.034;2023-03-01T11:20:24;5.40;99.90
9437;DHT22;4757;59.334;18.034;2023-03-01T17:11:22;7.20;99.90
9437;DHT22;4757;59.334;18.034;2023-03-01T17:14:40;7.20;99.90
9437;DHT22;4757;59.334;18.034;2023-03-01T17:17:19;7.20;99.90
9437;DHT22;4757;59.334;18.034;2023-03-01T17:19:49;7.20;99.90
9437;DHT22;4757;59.334;18.034;2023-03-01T17:22:26;7.20;99.90
9437;DHT22;4757;59.334;18.034;2023-03-01T17:24:56;7.20;99.90
9437;DHT22;4757;59.334;18.034;2023-03-01T17:27:31;7.20;99.90
9437;DHT22;4757;59.334;18.034;2023-03-01T17:30:20;7.10;99.90
9437;DHT22;4757;59.334;18.034;2023-03-01T17:33:20;7.10;99.90
9437;DHT22;4757;59.334;18.034;2023-03-01T17:36:02;7.00;99.90
9437;DHT22;4757;59.334;18.034;2023-03-01T17:38:31;7.00;99.90
9437;DHT22;4757;59.334;18.034;2023-03-01T17:41:40;7.00;99.90
9437;DHT22;4757;59.334;18.034;2023-03-01T17:44:30;6.90;99.90
9437;DHT22;4757;59.334;18.034;2023-03-01T17:47:26;6.90;99.90
9437;DHT22;4757;59.334;18.034;2023-03-01T17:50:21;6.80;99.90
9437;DHT22;4757;59.334;18.034;2023-03-01T17:52:53;6.80;99.90
9437;DHT22;4757;59.334;18.034;2023-03-01T17:55:21;6.80;99.90
9437;DHT22;4757;59.334;18.034;2023-03-01T17:58:14;6.80;99.90
9437;DHT22;4757;59.334;18.034;2023-03-01T18:00:44;6.80;99.90
9437;DHT22;4757;59.334;18.034;2023-03-01T18:03:14;6.80;99.90
9437;DHT22;4757;59.334;18.034;2023-03-01T18:05:43;6.80;99.90
9437;DHT22;4757;59.334;18.034;2023-03-01T18:08:10;6.80;99.90
9437;DHT22;4757;59.334;18.034;2023-03-01T18:10:38;6.80;99.90
9437;DHT22;4757;59.334;18.034;2023-03-01T18:13:06;6.80;99.90
9437;DHT22;4757;59.334;18.034;2023-03-01T18:15:36;6.80;99.90
9437;DHT22;4757;59.334;18.034;2023-03-01T18:18:06;6.80;99.90
9437;DHT22;4757;59.334;18.034;2023-03-01T18:20:34;6.70;99.90
9437;DHT22;4757;59.334;18.034;2023-03-01T18:23:01;6.80;99.90
9437;DHT22;4757;59.334;18.034;2023-03-01T18:25:28;6.80;99.90
9437;DHT22;4757;59.334;18.034;2023-03-01T18:27:55;6.70;99.90
9437;DHT22;4757;59.334;18.034;2023-03-01T18:30:22;6.70;99.90
9437;DHT22;4757;59.334;18.034;2023-03-01T18:32:52;6.70;99.90
9437;DHT22;4757;59.334;18.034;2023-03-01T18:35:22;6.70;99.90
9437;DHT22;4757;59.334;18.034;2023-03-01T18:37:50;6.70;99.90
9437;DHT22;4757;59.334;18.034;2023-03-01T18:40:17;6.70;99.90
9437;DHT22;4757;59.334;18.034;2023-03-01T18:42:44;6.70;99.90
9437;DHT22;4757;59.334;18.034;2023-03-01T18:45:12;6.70;99.90
9437;DHT22;4757;59.334;18.034;2023-03-01T18:47:40;6.80;99.90
9437;DHT22;4757;59.334;18.034;2023-03-01T18:50:08;6.80;99.90
9437;DHT22;4757;59.334;18.034;2023-03-01T18:52:35;6.80;99.90
9437;DHT22;4757;59.334;18.034;2023-03-01T18:55:02;6.70;99.90
9437;DHT22;4757;59.334;18.034;2023-03-01T18:57:29;6.80;99.90
9437;DHT22;4757;59.334;18.034;2023-03-01T18:59:56;6.80;99.90
9437;DHT22;4757;59.334;18.034;2023-03-01T19:02:24;6.80;99.90
9437;DHT22;4757;59.334;18.034;2023-03-01T19:04:51;6.80;99.90
9437;DHT22;4757;59.334;18.034;2023-03-01T19:07:20;6.80;99.90
9437;DHT22;4757;59.334;18.034;2023-03-01T19:09:47;6.80;99.90
9437;DHT22;4757;59.334;18.034;2023-03-01T19:12:15;6.80;99.90
9437;DHT22;4757;59.334;18.034;2023-03-01T19:14:43;6.80;99.90
9437;DHT22;4757;59.334;18.034;2023-03-01T19:17:11;6.80;99.90
9437;DHT22;4757;59.334;18.034;2023-03-01T19:19:38;6.80;99.90
9437;DHT22;4757;59.334;18.034;2023-03-01T19:22:07;6.80;99.90
9437;DHT22;4757;59.334;18.034;2023-03-01T19:24:34;6.80;99.90
9437;DHT22;4757;59.334;18.034;2023-03-01T19:27:01;6.80;99.90
9437;DHT22;4757;59.334;18.034;2023-03-01T19:29:29;6.80;99.90
9437;DHT22;4757;59.334;18.034;2023-03-01T19:31:58;6.80;99.90
9437;DHT22;4757;59.334;18.034;2023-03-01T19:34:25;6.80;99.90
9437;DHT22;4757;59.334;18.034;2023-03-01T19:36:53;6.80;99.90
9437;DHT22;4757;59.334;18.034;2023-03-01T19:39:20;6.70;99.90
9437;DHT22;4757;59.334;18.034;2023-03-01T19:41:47;6.70;99.90
9437;DHT22;4757;59.334;18.034;2023-03-01T19:44:15;6.70;99.90
9437;DHT22;4757;59.334;18.034;2023-03-01T19:46:42;6.70;99.90
9437;DHT22;4757;59.334;18.034;2023-03-01T19:49:11;6.70;99.90
9437;DHT22;4757;59.334;18.034;2023-03-01T19:51:39;6.60;99.90
9437;DHT22;4757;59.334;18.034;2023-03-01T19:54:07;6.70;99.90
9437;DHT22;4757;59.334;18.034;2023-03-01T19:56:35;6.70;99.90
9437;DHT22;4757;59.334;18.034;2023-03-01T19:59:03;6.70;99.90
9437;DHT22;4757;59.334;18.034;2023-03-01T20:01:33;6.70;99.90
9437;DHT22;4757;59.334;18.034;2023-03-01T20:04:01;6.70;99.90
9437;DHT22;4757;59.334;18.034;2023-03-01T20:06:29;6.70;99.90
9437;DHT22;4757;59.334;18.034;2023-03-01T20:08:57;6.70;99.90
9437;DHT22;4757;59.334;18.034;2023-03-01T20:11:32;6.70;99.90
9437;DHT22;4757;59.334;18.034;2023-03-01T20:14:00;6.60;99.90
9437;DHT22;4757;59.334;18.034;2023-03-01T20:16:28;6.60;99.90
9437;DHT22;4757;59.334;18.034;2023-03-01T20:18:55;6.60;99.90
9437;DHT22;4757;59.334;18.034;2023-03-01T20:21:25;6.60;99.90
9437;DHT22;4757;59.334;18.034;2023-03-01T20:23:53;6.60;99.90
9437;DHT22;4757;59.334;18.034;2023-03-01T20:26:21;6.50;99.90
9437;DHT22;4757;59.334;18.034;2023-03-01T20:28:50;6.50;99.90
9437;DHT22;4757;59.334;18.034;2023-03-01T20:31:19;6.50;99.90
9437;DHT22;4757;59.334;18.034;2023-03-01T20:33:47;6.50;99.90
9437;DHT22;4757;59.334;18.034;2023-03-01T20:36:15;6.50;99.90
9437;DHT22;4757;59.334;18.034;2023-03-01T20:38:42;6.50;99.90
9437;DHT22;4757;59.334;18.034;2023-03-01T20:41:11;6.50;99.90
9437;DHT22;4757;59.334;18.034;2023-03-01T20:43:40;6.50;99.90
9437;DHT22;4757;59.334;18.034;2023-03-01T20:46:12;6.50;99.90
9437;DHT22;4757;59.334;18.034;2023-03-01T20:48:41;6.50;99.90
9437;DHT22;4757;59.334;18.034;2023-03-01T20:51:13;6.50;99.90
9437;DHT22;4757;59.334;18.034;2023-03-01T20:53:41;6.40;99.90
9437;DHT22;4757;59.334;18.034;2023-03-01T20:56:13;6.40;99.90
9437;DHT22;4757;59.334;18.034;2023-03-01T20:58:41;6.30;99.90
9437;DHT22;4757;59.334;18.034;2023-03-01T21:01:13;6.40;99.90
9437;DHT22;4757;59.334;18.034;2023-03-01T21:03:41;6.30;99.90
9437;DHT22;4757;59.334;18.034;2023-03-01T21:06:10;6.30;99.90
9437;DHT22;4757;59.334;18.034;2023-03-01T21:08:37;6.30;99.90
9437;DHT22;4757;59.334;18.034;2023-03-01T21:11:05;6.30;99.90
9437;DHT22;4757;59.334;18.034;2023-03-01T21:13:34;6.30;99.90
9437;DHT22;4757;59.334;18.034;2023-03-01T21:16:07;6.30;99.90
9437;DHT22;4757;59.334;18.034;2023-03-01T21:18:36;6.20;99.90
9437;DHT22;4757;59.334;18.034;2023-03-01T21:21:12;6.20;99.90
9437;DHT22;4757;59.334;18.034;2023-03-01T21:23:40;6.20;99.90
9437;DHT22;4757;59.334;18.034;2023-03-01T21:26:16;6.20;99.90
9437;DHT22;4757;59.334;18.034;2023-03-01T21:28:45;6.10;99.90
9437;DHT22;4757;59.334;18.034;2023-03-01T21:31:19;6.10;99.90
9437;DHT22;4757;59.334;18.034;2023-03-01T21:33:51;6.10;99.90
9437;DHT22;4757;59.334;18.034;2023-03-01T21:36:19;6.00;99.90
9437;DHT22;4757;59.334;18.034;2023-03-01T21:38:48;6.00;99.90
9437;DHT22;4757;59.334;18.034;2023-03-01T21:41:24;5.90;99.90
9437;DHT22;4757;59.334;18.034;2023-03-01T21:43:54;5.90;99.90
9437;DHT22;4757;59.334;18.034;2023-03-01T21:46:25;5.90;99.90
9437;DHT22;4757;59.334;18.034;2023-03-01T21:48:54;5.90;99.90
9437;DHT22;4757;59.334;18.034;2023-03-01T21:51:24;5.90;99.90
9437;DHT22;4757;59.334;18.034;2023-03-01T21:53:53;5.90;99.90
9437;DHT22;4757;59.334;18.034;2023-03-01T21:56:27;5.80;99.90
9437;DHT22;4757;59.334;18.034;2023-03-01T21:58:57;5.80;99.90
9437;DHT22;4757;59.334;18.034;2023-03-01T22:01:25;5.80;99.90
9437;DHT22;4757;59.334;18.034;2023-03-01T22:03:55;5.70;99.90
9437;DHT22;4757;59.334;18.034;2023-03-01T22:06:28;5.70;99.90
9437;DHT22;4757;59.334;18.034;2023-03-01T22:09:01;5.60;99.90
9437;DHT22;4757;59.334;18.034;2023-03-01T22:11:33;5.60;99.90
9437;DHT22;4757;59.334;18.034;2023-03-01T22:14:01;5.50;99.90
9437;DHT22;4757;59.334;18.034;2023-03-01T22:16:33;5.50;99.90
9437;DHT22;4757;59.334;18.034;2023-03-01T22:19:02;5.50;99.90
9437;DHT22;4757;59.334;18.034;2023-03-01T22:21:30;5.50;99.90
9437;DHT22;4757;59.334;18.034;2023-03-01T22:23:57;5.40;99.90
9437;DHT22;4757;59.334;18.034;2023-03-01T22:26:31;5.40;99.90
9437;DHT22;4757;59.334;18.034;2023-03-01T22:29:02;5.40;99.90
9437;DHT22;4757;59.334;18.034;2023-03-01T22:31:30;5.40;99.90
9437;DHT22;4757;59.334;18.034;2023-03-01T22:33:58;5.40;99.90
9437;DHT22;4757;59.334;18.034;2023-03-01T22:36:26;5.50;99.90
9437;DHT22;4757;59.334;18.034;2023-03-01T22:38:54;5.50;99.90
9437;DHT22;4757;59.334;18.034;2023-03-01T22:41:32;5.60;99.90
9437;DHT22;4757;59.334;18.034;2023-03-01T22:44:00;5.60;99.90
9437;DHT22;4757;59.334;18.034;2023-03-01T22:46:29;5.60;99.90
9437;DHT22;4757;59.334;18.034;2023-03-01T22:48:56;5.60;99.90
9437;DHT22;4757;59.334;18.034;2023-03-01T22:51:30;5.60;99.90
9437;DHT22;4757;59.334;18.034;2023-03-01T22:53:58;5.50;99.90
9437;DHT22;4757;59.334;18.034;2023-03-01T22:56:28;5.60;99.90
9437;DHT22;4757;59.334;18.034;2023-03-01T22:58:57;5.60;99.90
9437;DHT22;4757;59.334;18.034;2023-03-01T23:01:26;5.60;99.90
9437;DHT22;4757;59.334;18.034;2023-03-01T23:03:53;5.60;99.90
9437;DHT22;4757;59.334;18.034;2023-03-01T23:06:21;5.60;99.90
9437;DHT22;4757;59.334;18.034;2023-03-01T23:08:53;5.60;99.90
9437;DHT22;4757;59.334;18.034;2023-03-01T23:11:21;5.60;99.90
9437;DHT22;4757;59.334;18.034;2023-03-01T23:13:50;5.60;99.90
9437;DHT22;4757;59.334;18.034;2023-03-01T23:16:18;5.60;99.90
9437;DHT22;4757;59.334;18.034;2023-03-01T23:18:45;5.60;99.90
9437;DHT22;4757;59.334;18.034;2023-03-01T23:21:14;5.70;99.90
9437;DHT22;4757;59.334;18.034;2023-03-01T23:23:43;5.70;99.90
9437;DHT22;4757;59.334;18.034;2023-03-01T23:26:13;5.70;99.90
9437;DHT22;4757;59.334;18.034;2023-03-01T23:28:41;5.60;99.90
9437;DHT22;4757;59.334;18.034;2023-03-01T23:31:13;5.60;99.90
9437;DHT22;4757;59.334;18.034;2023-03-01T23:33:41;5.60;99.90
9437;DHT22;4757;59.334;18.034;2023-03-01T23:38:44;5.50;99.90
9437;DHT22;4757;59.334;18.034;2023-03-01T23:41:14;5.50;99.90
9437;DHT22;4757;59.334;18.034;2023-03-01T23:43:47;5.50;99.90
9437;DHT22;4757;59.334;18.034;2023-03-01T23:46:16;5.50;99.90
9437;DHT22;4757;59.334;18.034;2023-03-01T23:48:43;5.40;99.90
9437;DHT22;4757;59.334;18.034;2023-03-01T23:51:11;5.30;99.90
9437;DHT22;4757;59.334;18.034;2023-03-01T23:53:42;5.30;99.90
9437;DHT22;4757;59.334;18.034;2023-03-01T23:56:12;5.20;99.90
9437;DHT22;4757;59.334;18.034;2023-03-01T23:58:39;5.20;99.90
